Aviation Digital Data Service (ADDS)

Output produced by METARs form (2339 UTC 30 June 2022)
found at http://www.aviationweather.gov/metar/data/
 
METAR text: RJCB 302300Z 16003KT 110V270 9999 FEW003 BKN006 16/15 Q1017
Conditions at: RJCB (OBIHIRO AIRPORT , JP) observed 2300 UTC 30 June 2022
Temperature: 16.0°C (61°F)
Dewpoint: 15.0°C (59°F) [RH = 94%]
Pressure (altimeter): 30.03 inches Hg (1017.0 mb)
Winds: from the SSE (160 degrees) at 3 MPH (3 knots; 1.5 m/s)
Visibility: 6 or more miles (10+ km)
Ceiling: 600 feet AGL
Clouds: few clouds at 300 feet AGL
broken clouds at 600 feet AGL
Weather: no significant weather observed at this time

METAR text: RJCB 302240Z 17003KT 120V220 8000 FEW003 BKN006 15/14 Q1017 RMK 1ST003 7ST006 A3004
Conditions at: RJCB (OBIHIRO AIRPORT , JP) observed 2240 UTC 30 June 2022
Temperature: 15.0°C (59°F)
Dewpoint: 14.0°C (57°F) [RH = 94%]
Pressure (altimeter): 30.03 inches Hg (1017.0 mb)
Winds: from the S (170 degrees) at 3 MPH (3 knots; 1.5 m/s)
Visibility: 5 miles ( 8 km)
Ceiling: 600 feet AGL
Clouds: few clouds at 300 feet AGL
broken clouds at 600 feet AGL
Weather: no significant weather observed at this time

METAR text: RJCB 301100Z 16004KT 9999 FEW006 BKN025 16/14 Q1014
Conditions at: RJCB (OBIHIRO AIRPORT , JP) observed 1100 UTC 30 June 2022
Temperature: 16.0°C (61°F)
Dewpoint: 14.0°C (57°F) [RH = 88%]
Pressure (altimeter): 29.94 inches Hg (1014.0 mb)
Winds: from the SSE (160 degrees) at 5 MPH (4 knots; 2.1 m/s)
Visibility: 6 or more miles (10+ km)
Ceiling: 2500 feet AGL
Clouds: few clouds at 600 feet AGL
broken clouds at 2500 feet AGL
Weather: no significant weather observed at this time

METAR text: RJCB 301000Z 14005KT 9999 FEW006 BKN025 16/14 Q1013
Conditions at: RJCB (OBIHIRO AIRPORT , JP) observed 1000 UTC 30 June 2022
Temperature: 16.0°C (61°F)
Dewpoint: 14.0°C (57°F) [RH = 88%]
Pressure (altimeter): 29.91 inches Hg (1013.0 mb)
Winds: from the SE (140 degrees) at 6 MPH (5 knots; 2.6 m/s)
Visibility: 6 or more miles (10+ km)
Ceiling: 2500 feet AGL
Clouds: few clouds at 600 feet AGL
broken clouds at 2500 feet AGL
Weather: no significant weather observed at this time

METAR text: RJCB 300900Z 16008KT 9999 FEW010 BKN025 17/14 Q1013
Conditions at: RJCB (OBIHIRO AIRPORT , JP) observed 0900 UTC 30 June 2022
Temperature: 17.0°C (63°F)
Dewpoint: 14.0°C (57°F) [RH = 82%]
Pressure (altimeter): 29.91 inches Hg (1013.0 mb)
Winds: from the SSE (160 degrees) at 9 MPH (8 knots; 4.1 m/s)
Visibility: 6 or more miles (10+ km)
Ceiling: 2500 feet AGL
Clouds: few clouds at 1000 feet AGL
broken clouds at 2500 feet AGL
Weather: no significant weather observed at this time

METAR text: RJCB 300800Z 17008KT 9999 FEW010 BKN020 17/14 Q1012
Conditions at: RJCB (OBIHIRO AIRPORT , JP) observed 0800 UTC 30 June 2022
Temperature: 17.0°C (63°F)
Dewpoint: 14.0°C (57°F) [RH = 82%]
Pressure (altimeter): 29.88 inches Hg (1012.0 mb)
Winds: from the S (170 degrees) at 9 MPH (8 knots; 4.1 m/s)
Visibility: 6 or more miles (10+ km)
Ceiling: 2000 feet AGL
Clouds: few clouds at 1000 feet AGL
broken clouds at 2000 feet AGL
Weather: no significant weather observed at this time

METAR text: RJCB 300700Z 16008KT 9999 FEW010 BKN020 18/16 Q1012
Conditions at: RJCB (OBIHIRO AIRPORT , JP) observed 0700 UTC 30 June 2022
Temperature: 18.0°C (64°F)
Dewpoint: 16.0°C (61°F) [RH = 88%]
Pressure (altimeter): 29.88 inches Hg (1012.0 mb)
Winds: from the SSE (160 degrees) at 9 MPH (8 knots; 4.1 m/s)
Visibility: 6 or more miles (10+ km)
Ceiling: 2000 feet AGL
Clouds: few clouds at 1000 feet AGL
broken clouds at 2000 feet AGL
Weather: no significant weather observed at this time

METAR text: RJCB 300600Z 17008KT 9999 FEW010 BKN020 18/16 Q1012
Conditions at: RJCB (OBIHIRO AIRPORT , JP) observed 0600 UTC 30 June 2022
Temperature: 18.0°C (64°F)
Dewpoint: 16.0°C (61°F) [RH = 88%]
Pressure (altimeter): 29.88 inches Hg (1012.0 mb)
Winds: from the S (170 degrees) at 9 MPH (8 knots; 4.1 m/s)
Visibility: 6 or more miles (10+ km)
Ceiling: 2000 feet AGL
Clouds: few clouds at 1000 feet AGL
broken clouds at 2000 feet AGL
Weather: no significant weather observed at this time

METAR text: RJCB 300500Z 18004KT 140V220 9999 FEW010 BKN025 20/16 Q1011
Conditions at: RJCB (OBIHIRO AIRPORT , JP) observed 0500 UTC 30 June 2022
Temperature: 20.0°C (68°F)
Dewpoint: 16.0°C (61°F) [RH = 78%]
Pressure (altimeter): 29.85 inches Hg (1011.0 mb)
Winds: from the S (180 degrees) at 5 MPH (4 knots; 2.1 m/s)
Visibility: 6 or more miles (10+ km)
Ceiling: 2500 feet AGL
Clouds: few clouds at 1000 feet AGL
broken clouds at 2500 feet AGL
Weather: no significant weather observed at this time

METAR text: RJCB 300400Z VRB02KT 9999 FEW010 BKN020 BKN035 20/17 Q1011
Conditions at: RJCB (OBIHIRO AIRPORT , JP) observed 0400 UTC 30 June 2022
Temperature: 20.0°C (68°F)
Dewpoint: 17.0°C (63°F) [RH = 83%]
Pressure (altimeter): 29.85 inches Hg (1011.0 mb)
Winds: variable direction winds at 2 MPH (2 knots; 1.0 m/s)
Visibility: 6 or more miles (10+ km)
Ceiling: 2000 feet AGL
Clouds: few clouds at 1000 feet AGL
broken clouds at 2000 feet AGL
broken clouds at 3500 feet AGL
Weather: no significant weather observed at this time

METAR text: RJCB 300300Z 20003KT 100V250 9999 FEW010 BKN015 18/16 Q1011
Conditions at: RJCB (OBIHIRO AIRPORT , JP) observed 0300 UTC 30 June 2022
Temperature: 18.0°C (64°F)
Dewpoint: 16.0°C (61°F) [RH = 88%]
Pressure (altimeter): 29.85 inches Hg (1011.0 mb)
Winds: from the SSW (200 degrees) at 3 MPH (3 knots; 1.5 m/s)
Visibility: 6 or more miles (10+ km)
Ceiling: 1500 feet AGL
Clouds: few clouds at 1000 feet AGL
broken clouds at 1500 feet AGL
Weather: no significant weather observed at this time

METAR text: RJCB 300200Z 17007KT 150V210 9999 FEW006 SCT015 BKN020 17/16 Q1011
Conditions at: RJCB (OBIHIRO AIRPORT , JP) observed 0200 UTC 30 June 2022
Temperature: 17.0°C (63°F)
Dewpoint: 16.0°C (61°F) [RH = 94%]
Pressure (altimeter): 29.85 inches Hg (1011.0 mb)
Winds: from the S (170 degrees) at 8 MPH (7 knots; 3.6 m/s)
Visibility: 6 or more miles (10+ km)
Ceiling: 2000 feet AGL
Clouds: few clouds at 600 feet AGL
scattered clouds at 1500 feet AGL
broken clouds at 2000 feet AGL
Weather: no significant weather observed at this time

METAR text: RJCB 300100Z VRB02KT 9999 FEW004 SCT008 BKN010 17/16 Q1011
Conditions at: RJCB (OBIHIRO AIRPORT , JP) observed 0100 UTC 30 June 2022
Temperature: 17.0°C (63°F)
Dewpoint: 16.0°C (61°F) [RH = 94%]
Pressure (altimeter): 29.85 inches Hg (1011.0 mb)
Winds: variable direction winds at 2 MPH (2 knots; 1.0 m/s)
Visibility: 6 or more miles (10+ km)
Ceiling: 1000 feet AGL
Clouds: few clouds at 400 feet AGL
scattered clouds at 800 feet AGL
broken clouds at 1000 feet AGL
Weather: no significant weather observed at this time

METAR text: RJCB 300000Z VRB02KT 9999 -SHRA FEW004 SCT008 BKN012 17/15 Q1011
Conditions at: RJCB (OBIHIRO AIRPORT , JP) observed 0000 UTC 30 June 2022
Temperature: 17.0°C (63°F)
Dewpoint: 15.0°C (59°F) [RH = 88%]
Pressure (altimeter): 29.85 inches Hg (1011.0 mb)
Winds: variable direction winds at 2 MPH (2 knots; 1.0 m/s)
Visibility: 6 or more miles (10+ km)
Ceiling: 1200 feet AGL
Clouds: few clouds at 400 feet AGL
scattered clouds at 800 feet AGL
broken clouds at 1200 feet AGL
Weather: -SHRA  (light rain showers)

METAR text: RJCB 292318Z 35003KT 6000 -SHRA FEW004 BKN008 BKN010 16/15 Q1011 RMK 1ST004 5ST008 7ST010 A2986
Conditions at: RJCB (OBIHIRO AIRPORT , JP) observed 2318 UTC 29 June 2022
Temperature: 16.0°C (61°F)
Dewpoint: 15.0°C (59°F) [RH = 94%]
Pressure (altimeter): 29.85 inches Hg (1011.0 mb)
Winds: from the N (350 degrees) at 3 MPH (3 knots; 1.5 m/s)
Visibility: 4 miles ( 6 km)
Ceiling: 800 feet AGL
Clouds: few clouds at 400 feet AGL
broken clouds at 800 feet AGL
broken clouds at 1000 feet AGL
Weather: -SHRA  (light rain showers)

METAR text: RJCB 292300Z 36005KT 6000 -SHRA FEW005 SCT009 BKN010 16/15 Q1011
Conditions at: RJCB (OBIHIRO AIRPORT , JP) observed 2300 UTC 29 June 2022
Temperature: 16.0°C (61°F)
Dewpoint: 15.0°C (59°F) [RH = 94%]
Pressure (altimeter): 29.85 inches Hg (1011.0 mb)
Winds: from the N (360 degrees) at 6 MPH (5 knots; 2.6 m/s)
Visibility: 4 miles ( 6 km)
Ceiling: 1000 feet AGL
Clouds: few clouds at 500 feet AGL
scattered clouds at 900 feet AGL
broken clouds at 1000 feet AGL
Weather: -SHRA  (light rain showers)

METAR text: RJCB 292240Z VRB02KT 8000 -DZ FEW005 BKN010 16/15 Q1011 RMK 2ST005 6ST010 A2986
Conditions at: RJCB (OBIHIRO AIRPORT , JP) observed 2240 UTC 29 June 2022
Temperature: 16.0°C (61°F)
Dewpoint: 15.0°C (59°F) [RH = 94%]
Pressure (altimeter): 29.85 inches Hg (1011.0 mb)
Winds: variable direction winds at 2 MPH (2 knots; 1.0 m/s)
Visibility: 5 miles ( 8 km)
Ceiling: 1000 feet AGL
Clouds: few clouds at 500 feet AGL
broken clouds at 1000 feet AGL
Weather: -DZ  (light drizzle)

Forecast for: RJCB (OBIHIRO AIRPORT , JP)
Text: TAF RJCB 302305Z 0100/0206 15011KT 9999 FEW003 BKN006
Forecast period: 0000 UTC 01 July 2022 to 0600 UTC 02 July 2022
Forecast type: FROM: standard forecast or significant change
Winds: from the SSE (150 degrees) at 13 MPH (11 knots; 5.7 m/s)
Visibility: 6 or more miles (10+ km)
Ceiling: 600 feet AGL
Clouds: few clouds at 300 feet AGL
broken clouds at 600 feet AGL
Weather: no significant weather forecast for this period
Text: BECMG 0100/0102 FEW010 SCT030
Forecast period: 0000 to 0900 UTC 01 July 2022
Forecast type: BECOMING: Conditions expected to become as follows by 0200 UTC 01 July 2022
Winds: from the SSE (150 degrees) at 13 MPH (11 knots; 5.7 m/s)
Visibility: 6 or more miles (10+ km)
Ceiling: at least 12,000 feet AGL
Clouds: few clouds at 1000 feet AGL
scattered clouds at 3000 feet AGL
Weather: no significant weather forecast for this period
Text: BECMG 0109/0111 FEW003 BKN005
Forecast period: 0900 UTC 01 July 2022 to 0000 UTC 02 July 2022
Forecast type: BECOMING: Conditions expected to become as follows by 1100 UTC 01 July 2022
Winds: from the SSE (150 degrees) at 13 MPH (11 knots; 5.7 m/s)
Visibility: 6 or more miles (10+ km)
Ceiling: 500 feet AGL
Clouds: few clouds at 300 feet AGL
broken clouds at 500 feet AGL
Weather: no significant weather forecast for this period
Text: TEMPO 0115/0200 1500 BR
Forecast period: 1500 UTC 01 July 2022 to 0000 UTC 02 July 2022
Forecast type: TEMPORARY: The following changes expected for less than half the time period
Visibility: 0.93 miles (1.50 km)
Ceiling: unknown
Clouds: missing
Weather: BR  (mist)
Text: BECMG 0200/0203 FEW008 BKN020
Forecast period: 0000 to 0600 UTC 02 July 2022
Forecast type: BECOMING: Conditions expected to become as follows by 0300 UTC 02 July 2022
Winds: from the SSE (150 degrees) at 13 MPH (11 knots; 5.7 m/s)
Visibility: 6 or more miles (10+ km)
Ceiling: 2000 feet AGL
Clouds: few clouds at 800 feet AGL
broken clouds at 2000 feet AGL
Weather: no significant weather forecast for this period